sensor_id;sensor_type;location;lat;lon;timestamp;P1;durP1;ratioP1;P2;durP2;ratioP2
50309;SDS011;36207;51.850;21.698;2023-11-22T00:00:10;20.30;;;11.60;;
50309;SDS011;36207;51.850;21.698;2023-11-22T00:02:57;19.50;;;11.60;;
50309;SDS011;36207;51.850;21.698;2023-11-22T00:05:23;18.90;;;11.50;;
50309;SDS011;36207;51.850;21.698;2023-11-22T00:07:49;21.90;;;11.60;;
50309;SDS011;36207;51.850;21.698;2023-11-22T00:10:16;19.00;;;12.60;;
50309;SDS011;36207;51.850;21.698;2023-11-22T00:12:41;21.00;;;12.10;;
50309;SDS011;36207;51.850;21.698;2023-11-22T00:15:07;19.30;;;11.90;;
50309;SDS011;36207;51.850;21.698;2023-11-22T00:17:36;20.50;;;12.60;;
50309;SDS011;36207;51.850;21.698;2023-11-22T00:20:02;19.50;;;11.90;;
50309;SDS011;36207;51.850;21.698;2023-11-22T00:22:34;18.00;;;10.90;;
50309;SDS011;36207;51.850;21.698;2023-11-22T00:25:01;19.40;;;12.30;;
50309;SDS011;36207;51.850;21.698;2023-11-22T00:27:28;19.60;;;12.00;;
50309;SDS011;36207;51.850;21.698;2023-11-22T00:29:55;22.60;;;13.20;;
50309;SDS011;36207;51.850;21.698;2023-11-22T00:32:22;22.50;;;13.40;;
50309;SDS011;36207;51.850;21.698;2023-11-22T00:34:47;20.60;;;12.50;;
50309;SDS011;36207;51.850;21.698;2023-11-22T00:37:13;19.30;;;12.30;;
50309;SDS011;36207;51.850;21.698;2023-11-22T00:39:39;24.20;;;12.40;;
50309;SDS011;36207;51.850;21.698;2023-11-22T00:42:05;20.20;;;12.30;;
50309;SDS011;36207;51.850;21.698;2023-11-22T00:44:32;20.00;;;12.00;;
50309;SDS011;36207;51.850;21.698;2023-11-22T00:46:58;21.10;;;12.50;;
50309;SDS011;36207;51.850;21.698;2023-11-22T00:49:24;21.40;;;13.30;;
50309;SDS011;36207;51.850;21.698;2023-11-22T00:51:50;22.10;;;12.00;;
50309;SDS011;36207;51.850;21.698;2023-11-22T00:54:16;19.80;;;12.60;;
50309;SDS011;36207;51.850;21.698;2023-11-22T00:56:44;20.80;;;12.50;;
50309;SDS011;36207;51.850;21.698;2023-11-22T00:59:10;21.10;;;12.50;;
50309;SDS011;36207;51.850;21.698;2023-11-22T01:01:36;21.10;;;12.60;;
50309;SDS011;36207;51.850;21.698;2023-11-22T01:04:02;22.60;;;12.60;;
50309;SDS011;36207;51.850;21.698;2023-11-22T01:06:30;20.10;;;12.90;;
50309;SDS011;36207;51.850;21.698;2023-11-22T01:08:57;20.80;;;12.50;;
50309;SDS011;36207;51.850;21.698;2023-11-22T01:11:23;21.00;;;12.70;;
50309;SDS011;36207;51.850;21.698;2023-11-22T01:13:49;20.00;;;12.50;;
50309;SDS011;36207;51.850;21.698;2023-11-22T01:16:15;19.60;;;11.90;;
50309;SDS011;36207;51.850;21.698;2023-11-22T01:18:42;24.30;;;12.70;;
50309;SDS011;36207;51.850;21.698;2023-11-22T01:21:09;19.50;;;12.10;;
50309;SDS011;36207;51.850;21.698;2023-11-22T01:23:34;20.50;;;12.30;;
50309;SDS011;36207;51.850;21.698;2023-11-22T01:26:00;20.30;;;12.10;;
50309;SDS011;36207;51.850;21.698;2023-11-22T01:28:28;21.20;;;12.10;;
50309;SDS011;36207;51.850;21.698;2023-11-22T01:30:55;23.10;;;12.90;;
50309;SDS011;36207;51.850;21.698;2023-11-22T01:33:21;18.60;;;11.40;;
50309;SDS011;36207;51.850;21.698;2023-11-22T01:35:47;18.20;;;11.30;;
50309;SDS011;36207;51.850;21.698;2023-11-22T01:38:15;19.00;;;11.70;;
50309;SDS011;36207;51.850;21.698;2023-11-22T01:40:45;19.10;;;11.40;;
50309;SDS011;36207;51.850;21.698;2023-11-22T01:43:16;21.70;;;11.80;;
50309;SDS011;36207;51.850;21.698;2023-11-22T01:45:43;19.90;;;11.50;;
50309;SDS011;36207;51.850;21.698;2023-11-22T01:48:12;17.40;;;10.90;;
50309;SDS011;36207;51.850;21.698;2023-11-22T01:50:39;19.50;;;11.80;;
50309;SDS011;36207;51.850;21.698;2023-11-22T01:53:08;20.40;;;11.60;;
50309;SDS011;36207;51.850;21.698;2023-11-22T01:55:38;17.70;;;10.60;;
50309;SDS011;36207;51.850;21.698;2023-11-22T01:58:06;17.40;;;10.60;;
50309;SDS011;36207;51.850;21.698;2023-11-22T02:00:32;18.60;;;11.00;;
50309;SDS011;36207;51.850;21.698;2023-11-22T02:03:07;17.20;;;11.00;;
50309;SDS011;36207;51.850;21.698;2023-11-22T02:05:33;17.20;;;10.80;;
50309;SDS011;36207;51.850;21.698;2023-11-22T02:07:59;16.80;;;10.50;;
50309;SDS011;36207;51.850;21.698;2023-11-22T02:10:26;17.60;;;10.90;;
50309;SDS011;36207;51.850;21.698;2023-11-22T02:12:52;17.40;;;10.20;;
50309;SDS011;36207;51.850;21.698;2023-11-22T02:15:17;17.70;;;10.60;;
50309;SDS011;36207;51.850;21.698;2023-11-22T02:17:44;17.90;;;10.70;;
50309;SDS011;36207;51.850;21.698;2023-11-22T02:20:10;16.50;;;10.00;;
50309;SDS011;36207;51.850;21.698;2023-11-22T02:22:43;16.20;;;9.80;;
50309;SDS011;36207;51.850;21.698;2023-11-22T02:25:11;15.40;;;9.40;;
50309;SDS011;36207;51.850;21.698;2023-11-22T02:27:37;14.80;;;9.40;;
50309;SDS011;36207;51.850;21.698;2023-11-22T02:30:03;17.70;;;9.10;;
50309;SDS011;36207;51.850;21.698;2023-11-22T02:32:31;18.00;;;10.60;;
50309;SDS011;36207;51.850;21.698;2023-11-22T02:34:59;13.10;;;8.70;;
50309;SDS011;36207;51.850;21.698;2023-11-22T02:37:26;16.20;;;9.20;;
50309;SDS011;36207;51.850;21.698;2023-11-22T02:40:02;14.80;;;9.20;;
50309;SDS011;36207;51.850;21.698;2023-11-22T02:42:33;14.30;;;8.60;;
50309;SDS011;36207;51.850;21.698;2023-11-22T02:44:59;14.20;;;8.50;;
50309;SDS011;36207;51.850;21.698;2023-11-22T02:47:25;15.90;;;9.40;;
50309;SDS011;36207;51.850;21.698;2023-11-22T02:49:52;15.40;;;9.40;;
50309;SDS011;36207;51.850;21.698;2023-11-22T02:52:18;14.80;;;8.80;;
50309;SDS011;36207;51.850;21.698;2023-11-22T02:54:44;14.40;;;8.80;;
50309;SDS011;36207;51.850;21.698;2023-11-22T02:57:13;15.10;;;9.00;;
50309;SDS011;36207;51.850;21.698;2023-11-22T02:59:42;13.80;;;8.90;;
50309;SDS011;36207;51.850;21.698;2023-11-22T03:02:09;14.20;;;8.60;;
50309;SDS011;36207;51.850;21.698;2023-11-22T03:04:36;14.20;;;8.70;;
50309;SDS011;36207;51.850;21.698;2023-11-22T03:07:02;16.40;;;8.90;;
50309;SDS011;36207;51.850;21.698;2023-11-22T03:09:28;17.10;;;8.60;;
50309;SDS011;36207;51.850;21.698;2023-11-22T03:11:54;14.90;;;8.90;;
50309;SDS011;36207;51.850;21.698;2023-11-22T03:14:20;13.70;;;8.40;;
50309;SDS011;36207;51.850;21.698;2023-11-22T03:16:47;14.40;;;8.20;;
50309;SDS011;36207;51.850;21.698;2023-11-22T03:19:14;15.20;;;8.00;;
50309;SDS011;36207;51.850;21.698;2023-11-22T03:21:40;12.40;;;7.70;;
50309;SDS011;36207;51.850;21.698;2023-11-22T03:24:09;12.20;;;7.90;;
50309;SDS011;36207;51.850;21.698;2023-11-22T03:26:36;12.70;;;7.60;;
50309;SDS011;36207;51.850;21.698;2023-11-22T03:29:02;14.00;;;8.30;;
50309;SDS011;36207;51.850;21.698;2023-11-22T03:31:28;13.40;;;8.00;;
50309;SDS011;36207;51.850;21.698;2023-11-22T03:33:54;12.30;;;7.60;;
50309;SDS011;36207;51.850;21.698;2023-11-22T03:36:22;12.10;;;7.40;;
50309;SDS011;36207;51.850;21.698;2023-11-22T03:38:48;12.90;;;7.90;;
50309;SDS011;36207;51.850;21.698;2023-11-22T03:41:15;14.00;;;7.70;;
50309;SDS011;36207;51.850;21.698;2023-11-22T03:43:44;12.60;;;7.60;;
50309;SDS011;36207;51.850;21.698;2023-11-22T03:46:10;14.00;;;7.90;;
50309;SDS011;36207;51.850;21.698;2023-11-22T03:48:37;13.40;;;7.50;;
50309;SDS011;36207;51.850;21.698;2023-11-22T03:51:03;13.50;;;7.60;;
50309;SDS011;36207;51.850;21.698;2023-11-22T03:53:29;11.40;;;7.30;;
50309;SDS011;36207;51.850;21.698;2023-11-22T03:55:55;14.90;;;8.00;;
50309;SDS011;36207;51.850;21.698;2023-11-22T03:58:21;16.30;;;7.30;;
50309;SDS011;36207;51.850;21.698;2023-11-22T04:00:47;13.10;;;7.30;;
50309;SDS011;36207;51.850;21.698;2023-11-22T04:03:13;11.90;;;7.30;;
50309;SDS011;36207;51.850;21.698;2023-11-22T04:05:39;13.80;;;7.50;;
50309;SDS011;36207;51.850;21.698;2023-11-22T04:08:06;11.60;;;7.60;;
50309;SDS011;36207;51.850;21.698;2023-11-22T04:10:34;13.80;;;8.10;;
50309;SDS011;36207;51.850;21.698;2023-11-22T04:13:00;15.20;;;7.40;;
50309;SDS011;36207;51.850;21.698;2023-11-22T04:15:26;15.10;;;8.20;;
50309;SDS011;36207;51.850;21.698;2023-11-22T04:17:52;14.00;;;7.90;;
50309;SDS011;36207;51.850;21.698;2023-11-22T04:20:20;13.10;;;7.90;;
50309;SDS011;36207;51.850;21.698;2023-11-22T04:22:46;14.20;;;8.10;;
50309;SDS011;36207;51.850;21.698;2023-11-22T04:25:12;12.70;;;8.10;;
50309;SDS011;36207;51.850;21.698;2023-11-22T04:27:41;11.60;;;7.60;;
50309;SDS011;36207;51.850;21.698;2023-11-22T04:30:07;11.20;;;7.20;;
50309;SDS011;36207;51.850;21.698;2023-11-22T04:32:38;12.60;;;7.80;;
50309;SDS011;36207;51.850;21.698;2023-11-22T04:35:05;12.30;;;7.40;;
50309;SDS011;36207;51.850;21.698;2023-11-22T04:37:32;11.80;;;7.70;;
50309;SDS011;36207;51.850;21.698;2023-11-22T04:39:58;12.30;;;7.60;;
50309;SDS011;36207;51.850;21.698;2023-11-22T04:42:26;14.00;;;7.80;;
50309;SDS011;36207;51.850;21.698;2023-11-22T04:44:53;11.80;;;7.50;;
50309;SDS011;36207;51.850;21.698;2023-11-22T04:47:20;12.80;;;7.30;;
50309;SDS011;36207;51.850;21.698;2023-11-22T04:49:49;12.70;;;8.00;;
50309;SDS011;36207;51.850;21.698;2023-11-22T04:52:15;12.80;;;7.30;;
50309;SDS011;36207;51.850;21.698;2023-11-22T04:54:42;13.90;;;7.70;;
50309;SDS011;36207;51.850;21.698;2023-11-22T04:57:07;11.40;;;7.60;;
50309;SDS011;36207;51.850;21.698;2023-11-22T04:59:33;12.70;;;7.40;;
50309;SDS011;36207;51.850;21.698;2023-11-22T05:02:00;12.60;;;7.70;;
50309;SDS011;36207;51.850;21.698;2023-11-22T05:04:25;14.30;;;8.00;;
50309;SDS011;36207;51.850;21.698;2023-11-22T05:06:53;12.70;;;7.40;;
50309;SDS011;36207;51.850;21.698;2023-11-22T05:09:19;12.30;;;7.30;;
50309;SDS011;36207;51.850;21.698;2023-11-22T05:11:45;13.50;;;7.60;;
50309;SDS011;36207;51.850;21.698;2023-11-22T05:14:11;13.70;;;7.70;;
50309;SDS011;36207;51.850;21.698;2023-11-22T05:16:39;12.30;;;7.60;;
50309;SDS011;36207;51.850;21.698;2023-11-22T05:19:05;12.30;;;7.40;;
50309;SDS011;36207;51.850;21.698;2023-11-22T05:21:31;11.70;;;7.20;;
50309;SDS011;36207;51.850;21.698;2023-11-22T05:23:58;11.80;;;7.10;;
50309;SDS011;36207;51.850;21.698;2023-11-22T05:26:24;12.80;;;7.40;;
50309;SDS011;36207;51.850;21.698;2023-11-22T05:28:51;13.60;;;7.20;;
50309;SDS011;36207;51.850;21.698;2023-11-22T05:31:19;11.50;;;7.40;;
50309;SDS011;36207;51.850;21.698;2023-11-22T05:33:46;12.60;;;7.70;;
50309;SDS011;36207;51.850;21.698;2023-11-22T05:36:12;13.80;;;8.00;;
50309;SDS011;36207;51.850;21.698;2023-11-22T05:38:39;12.20;;;7.10;;
50309;SDS011;36207;51.850;21.698;2023-11-22T05:41:05;12.60;;;7.40;;
50309;SDS011;36207;51.850;21.698;2023-11-22T05:43:31;11.80;;;7.40;;
50309;SDS011;36207;51.850;21.698;2023-11-22T05:45:57;13.90;;;7.40;;
50309;SDS011;36207;51.850;21.698;2023-11-22T05:48:23;14.90;;;7.40;;
50309;SDS011;36207;51.850;21.698;2023-11-22T05:50:50;13.40;;;7.30;;
50309;SDS011;36207;51.850;21.698;2023-11-22T05:53:16;11.70;;;7.20;;
50309;SDS011;36207;51.850;21.698;2023-11-22T05:55:45;11.30;;;7.30;;
50309;SDS011;36207;51.850;21.698;2023-11-22T05:58:15;24.10;;;7.70;;
50309;SDS011;36207;51.850;21.698;2023-11-22T06:00:48;13.80;;;7.80;;
50309;SDS011;36207;51.850;21.698;2023-11-22T06:03:14;11.80;;;7.20;;
50309;SDS011;36207;51.850;21.698;2023-11-22T06:05:40;12.90;;;7.70;;
50309;SDS011;36207;51.850;21.698;2023-11-22T06:08:06;11.70;;;7.50;;
50309;SDS011;36207;51.850;21.698;2023-11-22T06:10:32;13.60;;;7.30;;
50309;SDS011;36207;51.850;21.698;2023-11-22T06:12:59;14.60;;;7.80;;
50309;SDS011;36207;51.850;21.698;2023-11-22T06:15:25;13.80;;;7.40;;
50309;SDS011;36207;51.850;21.698;2023-11-22T06:17:51;11.50;;;7.30;;
50309;SDS011;36207;51.850;21.698;2023-11-22T06:20:17;16.00;;;7.80;;
50309;SDS011;36207;51.850;21.698;2023-11-22T06:22:43;12.60;;;7.70;;
50309;SDS011;36207;51.850;21.698;2023-11-22T06:25:10;15.70;;;8.70;;
50309;SDS011;36207;51.850;21.698;2023-11-22T06:27:36;12.60;;;7.70;;
50309;SDS011;36207;51.850;21.698;2023-11-22T06:30:03;16.60;;;8.30;;
50309;SDS011;36207;51.850;21.698;2023-11-22T06:32:32;14.60;;;8.30;;
50309;SDS011;36207;51.850;21.698;2023-11-22T06:34:59;13.50;;;7.90;;
50309;SDS011;36207;51.850;21.698;2023-11-22T06:37:25;14.10;;;8.20;;
50309;SDS011;36207;51.850;21.698;2023-11-22T06:39:51;14.10;;;8.30;;
50309;SDS011;36207;51.850;21.698;2023-11-22T06:42:18;14.70;;;8.00;;
50309;SDS011;36207;51.850;21.698;2023-11-22T06:44:47;16.00;;;8.80;;
50309;SDS011;36207;51.850;21.698;2023-11-22T06:47:13;15.60;;;8.90;;
50309;SDS011;36207;51.850;21.698;2023-11-22T06:49:39;14.20;;;8.50;;
50309;SDS011;36207;51.850;21.698;2023-11-22T06:52:05;13.90;;;8.10;;
50309;SDS011;36207;51.850;21.698;2023-11-22T06:54:31;13.40;;;8.40;;
50309;SDS011;36207;51.850;21.698;2023-11-22T06:56:57;12.40;;;7.70;;
50309;SDS011;36207;51.850;21.698;2023-11-22T06:59:24;12.30;;;7.70;;
50309;SDS011;36207;51.850;21.698;2023-11-22T07:01:49;14.10;;;8.20;;
50309;SDS011;36207;51.850;21.698;2023-11-22T07:04:15;13.30;;;8.30;;
50309;SDS011;36207;51.850;21.698;2023-11-22T07:06:42;12.20;;;7.80;;
50309;SDS011;36207;51.850;21.698;2023-11-22T07:09:09;13.50;;;7.80;;
50309;SDS011;36207;51.850;21.698;2023-11-22T07:11:36;12.10;;;7.50;;
50309;SDS011;36207;51.850;21.698;2023-11-22T07:14:02;13.10;;;8.10;;
50309;SDS011;36207;51.850;21.698;2023-11-22T07:16:32;13.80;;;8.20;;
50309;SDS011;36207;51.850;21.698;2023-11-22T07:18:59;14.10;;;7.90;;
50309;SDS011;36207;51.850;21.698;2023-11-22T07:21:31;13.60;;;7.40;;
50309;SDS011;36207;51.850;21.698;2023-11-22T07:23:57;15.60;;;8.00;;
50309;SDS011;36207;51.850;21.698;2023-11-22T07:26:24;12.20;;;7.30;;
50309;SDS011;36207;51.850;21.698;2023-11-22T07:28:53;14.40;;;8.00;;
50309;SDS011;36207;51.850;21.698;2023-11-22T07:31:20;12.90;;;7.60;;
50309;SDS011;36207;51.850;21.698;2023-11-22T07:33:48;14.40;;;7.50;;
50309;SDS011;36207;51.850;21.698;2023-11-22T07:36:14;12.90;;;7.30;;
50309;SDS011;36207;51.850;21.698;2023-11-22T07:38:41;13.50;;;7.50;;
50309;SDS011;36207;51.850;21.698;2023-11-22T07:41:08;12.20;;;7.20;;
50309;SDS011;36207;51.850;21.698;2023-11-22T07:43:34;13.60;;;7.90;;
50309;SDS011;36207;51.850;21.698;2023-11-22T07:46:04;13.20;;;6.90;;
50309;SDS011;36207;51.850;21.698;2023-11-22T07:48:44;13.00;;;7.60;;
50309;SDS011;36207;51.850;21.698;2023-11-22T07:51:13;12.20;;;7.20;;
50309;SDS011;36207;51.850;21.698;2023-11-22T07:53:42;13.40;;;7.60;;
50309;SDS011;36207;51.850;21.698;2023-11-22T07:56:09;10.70;;;6.70;;
50309;SDS011;36207;51.850;21.698;2023-11-22T07:58:37;11.40;;;6.90;;
50309;SDS011;36207;51.850;21.698;2023-11-22T08:01:03;13.00;;;7.60;;
50309;SDS011;36207;51.850;21.698;2023-11-22T08:03:30;10.60;;;6.60;;
50309;SDS011;36207;51.850;21.698;2023-11-22T08:05:56;11.10;;;6.80;;
50309;SDS011;36207;51.850;21.698;2023-11-22T08:08:22;11.90;;;6.90;;
50309;SDS011;36207;51.850;21.698;2023-11-22T08:10:49;10.70;;;6.70;;
50309;SDS011;36207;51.850;21.698;2023-11-22T08:13:19;10.20;;;6.50;;
50309;SDS011;36207;51.850;21.698;2023-11-22T08:15:48;11.50;;;6.50;;
50309;SDS011;36207;51.850;21.698;2023-11-22T08:18:15;12.00;;;6.80;;
50309;SDS011;36207;51.850;21.698;2023-11-22T08:20:42;10.70;;;6.30;;
50309;SDS011;36207;51.850;21.698;2023-11-22T08:23:09;11.40;;;6.00;;
50309;SDS011;36207;51.850;21.698;2023-11-22T08:25:37;11.10;;;6.50;;
50309;SDS011;36207;51.850;21.698;2023-11-22T08:28:04;10.10;;;6.70;;
50309;SDS011;36207;51.850;21.698;2023-11-22T08:30:34;10.40;;;6.20;;
50309;SDS011;36207;51.850;21.698;2023-11-22T08:33:01;10.20;;;6.30;;
50309;SDS011;36207;51.850;21.698;2023-11-22T08:35:27;12.80;;;6.30;;
50309;SDS011;36207;51.850;21.698;2023-11-22T08:37:53;10.80;;;6.40;;
50309;SDS011;36207;51.850;21.698;2023-11-22T08:40:20;9.60;;;6.10;;
50309;SDS011;36207;51.850;21.698;2023-11-22T08:42:46;11.60;;;6.50;;
50309;SDS011;36207;51.850;21.698;2023-11-22T08:45:13;11.60;;;6.50;;
50309;SDS011;36207;51.850;21.698;2023-11-22T08:47:39;9.70;;;6.30;;
50309;SDS011;36207;51.850;21.698;2023-11-22T08:50:08;10.90;;;6.60;;
50309;SDS011;36207;51.850;21.698;2023-11-22T08:52:38;10.50;;;6.60;;
50309;SDS011;36207;51.850;21.698;2023-11-22T08:55:07;11.80;;;6.80;;
50309;SDS011;36207;51.850;21.698;2023-11-22T08:57:37;12.30;;;6.90;;
50309;SDS011;36207;51.850;21.698;2023-11-22T09:00:04;11.30;;;7.00;;
50309;SDS011;36207;51.850;21.698;2023-11-22T09:02:35;12.90;;;7.30;;
50309;SDS011;36207;51.850;21.698;2023-11-22T09:05:03;11.60;;;6.60;;
50309;SDS011;36207;51.850;21.698;2023-11-22T09:07:32;12.30;;;7.30;;
50309;SDS011;36207;51.850;21.698;2023-11-22T09:10:00;11.50;;;6.80;;
50309;SDS011;36207;51.850;21.698;2023-11-22T09:12:25;11.10;;;6.90;;
50309;SDS011;36207;51.850;21.698;2023-11-22T09:14:52;11.70;;;6.70;;
50309;SDS011;36207;51.850;21.698;2023-11-22T09:17:18;11.40;;;6.60;;
50309;SDS011;36207;51.850;21.698;2023-11-22T09:19:46;11.00;;;6.50;;
50309;SDS011;36207;51.850;21.698;2023-11-22T09:22:12;11.40;;;6.80;;
50309;SDS011;36207;51.850;21.698;2023-11-22T09:24:38;12.50;;;7.30;;
50309;SDS011;36207;51.850;21.698;2023-11-22T09:27:05;11.50;;;6.80;;
50309;SDS011;36207;51.850;21.698;2023-11-22T09:29:31;12.50;;;7.20;;
50309;SDS011;36207;51.850;21.698;2023-11-22T09:31:59;11.70;;;6.60;;
50309;SDS011;36207;51.850;21.698;2023-11-22T09:34:27;11.80;;;7.20;;
50309;SDS011;36207;51.850;21.698;2023-11-22T09:36:53;11.90;;;7.10;;
50309;SDS011;36207;51.850;21.698;2023-11-22T09:39:19;13.20;;;7.30;;
50309;SDS011;36207;51.850;21.698;2023-11-22T09:41:47;12.00;;;7.50;;
50309;SDS011;36207;51.850;21.698;2023-11-22T09:44:14;11.30;;;6.70;;
50309;SDS011;36207;51.850;21.698;2023-11-22T09:46:42;11.70;;;6.90;;
50309;SDS011;36207;51.850;21.698;2023-11-22T09:49:10;9.50;;;6.30;;
50309;SDS011;36207;51.850;21.698;2023-11-22T09:51:45;12.90;;;6.60;;
50309;SDS011;36207;51.850;21.698;2023-11-22T09:54:14;12.60;;;6.70;;
50309;SDS011;36207;51.850;21.698;2023-11-22T09:56:42;12.10;;;6.40;;
50309;SDS011;36207;51.850;21.698;2023-11-22T10:01:44;12.10;;;6.80;;
50309;SDS011;36207;51.850;21.698;2023-11-22T10:04:10;10.50;;;6.50;;
50309;SDS011;36207;51.850;21.698;2023-11-22T10:06:37;12.30;;;6.70;;
50309;SDS011;36207;51.850;21.698;2023-11-22T10:09:04;10.10;;;6.20;;
50309;SDS011;36207;51.850;21.698;2023-11-22T10:11:34;11.70;;;7.00;;
50309;SDS011;36207;51.850;21.698;2023-11-22T10:14:05;11.70;;;7.60;;
50309;SDS011;36207;51.850;21.698;2023-11-22T10:16:32;12.30;;;7.30;;
50309;SDS011;36207;51.850;21.698;2023-11-22T10:18:58;12.70;;;7.20;;
50309;SDS011;36207;51.850;21.698;2023-11-22T10:21:25;11.40;;;7.00;;
50309;SDS011;36207;51.850;21.698;2023-11-22T10:23:57;11.50;;;7.30;;
50309;SDS011;36207;51.850;21.698;2023-11-22T10:28:54;12.50;;;7.40;;
50309;SDS011;36207;51.850;21.698;2023-11-22T10:31:22;15.10;;;7.40;;
50309;SDS011;36207;51.850;21.698;2023-11-22T10:33:50;12.00;;;7.20;;
50309;SDS011;36207;51.850;21.698;2023-11-22T10:36:16;14.40;;;7.10;;
50309;SDS011;36207;51.850;21.698;2023-11-22T10:38:46;12.60;;;7.50;;
50309;SDS011;36207;51.850;21.698;2023-11-22T10:41:13;12.90;;;8.10;;
50309;SDS011;36207;51.850;21.698;2023-11-22T10:43:40;13.50;;;7.80;;
50309;SDS011;36207;51.850;21.698;2023-11-22T10:46:08;13.40;;;8.00;;
50309;SDS011;36207;51.850;21.698;2023-11-22T10:48:37;13.20;;;7.90;;
50309;SDS011;36207;51.850;21.698;2023-11-22T10:51:04;13.00;;;7.80;;
50309;SDS011;36207;51.850;21.698;2023-11-22T10:53:32;11.90;;;7.60;;
50309;SDS011;36207;51.850;21.698;2023-11-22T10:56:15;11.50;;;7.60;;
50309;SDS011;36207;51.850;21.698;2023-11-22T11:01:18;12.80;;;7.90;;
50309;SDS011;36207;51.850;21.698;2023-11-22T11:03:55;12.80;;;7.80;;
50309;SDS011;36207;51.850;21.698;2023-11-22T11:06:26;13.00;;;7.90;;
50309;SDS011;36207;51.850;21.698;2023-11-22T11:08:59;13.90;;;7.90;;
50309;SDS011;36207;51.850;21.698;2023-11-22T11:11:32;13.80;;;7.80;;
50309;SDS011;36207;51.850;21.698;2023-11-22T11:14:00;12.80;;;7.70;;
50309;SDS011;36207;51.850;21.698;2023-11-22T11:16:27;14.70;;;8.40;;
50309;SDS011;36207;51.850;21.698;2023-11-22T11:18:56;14.70;;;7.50;;
50309;SDS011;36207;51.850;21.698;2023-11-22T11:21:25;14.10;;;8.00;;
50309;SDS011;36207;51.850;21.698;2023-11-22T11:23:51;13.00;;;7.70;;
50309;SDS011;36207;51.850;21.698;2023-11-22T11:26:20;14.40;;;9.00;;
50309;SDS011;36207;51.850;21.698;2023-11-22T11:28:50;14.40;;;8.20;;
50309;SDS011;36207;51.850;21.698;2023-11-22T11:31:20;13.10;;;7.80;;
50309;SDS011;36207;51.850;21.698;2023-11-22T11:36:31;10.30;;;6.80;;
50309;SDS011;36207;51.850;21.698;2023-11-22T11:38:58;11.20;;;7.20;;
50309;SDS011;36207;51.850;21.698;2023-11-22T11:41:31;11.50;;;7.10;;
50309;SDS011;36207;51.850;21.698;2023-11-22T11:43:58;14.40;;;7.50;;
50309;SDS011;36207;51.850;21.698;2023-11-22T11:46:27;11.50;;;7.10;;
50309;SDS011;36207;51.850;21.698;2023-11-22T11:48:55;10.50;;;6.70;;
50309;SDS011;36207;51.850;21.698;2023-11-22T11:53:52;11.10;;;7.60;;
50309;SDS011;36207;51.850;21.698;2023-11-22T11:56:19;12.20;;;7.00;;
50309;SDS011;36207;51.850;21.698;2023-11-22T11:58:46;10.50;;;7.20;;
50309;SDS011;36207;51.850;21.698;2023-11-22T12:01:15;15.10;;;8.00;;
50309;SDS011;36207;51.850;21.698;2023-11-22T12:03:43;15.10;;;8.50;;
50309;SDS011;36207;51.850;21.698;2023-11-22T12:06:09;13.00;;;7.70;;
50309;SDS011;36207;51.850;21.698;2023-11-22T12:08:36;14.70;;;8.30;;
50309;SDS011;36207;51.850;21.698;2023-11-22T12:11:02;12.90;;;7.80;;
50309;SDS011;36207;51.850;21.698;2023-11-22T12:13:36;14.10;;;8.00;;
50309;SDS011;36207;51.850;21.698;2023-11-22T12:16:15;11.90;;;7.50;;
50309;SDS011;36207;51.850;21.698;2023-11-22T12:21:18;13.20;;;7.30;;
50309;SDS011;36207;51.850;21.698;2023-11-22T12:23:45;10.00;;;6.20;;
50309;SDS011;36207;51.850;21.698;2023-11-22T12:26:13;8.70;;;5.50;;
50309;SDS011;36207;51.850;21.698;2023-11-22T12:28:40;9.50;;;5.80;;
50309;SDS011;36207;51.850;21.698;2023-11-22T12:31:11;13.70;;;6.50;;
50309;SDS011;36207;51.850;21.698;2023-11-22T12:33:39;10.80;;;6.50;;
50309;SDS011;36207;51.850;21.698;2023-11-22T12:36:07;10.90;;;6.60;;
50309;SDS011;36207;51.850;21.698;2023-11-22T12:38:35;9.90;;;5.70;;
50309;SDS011;36207;51.850;21.698;2023-11-22T12:41:03;10.10;;;6.00;;
50309;SDS011;36207;51.850;21.698;2023-11-22T12:43:32;11.00;;;6.50;;
50309;SDS011;36207;51.850;21.698;2023-11-22T12:46:05;10.70;;;6.50;;
50309;SDS011;36207;51.850;21.698;2023-11-22T12:48:33;9.30;;;6.20;;
50309;SDS011;36207;51.850;21.698;2023-11-22T12:50:59;10.70;;;6.70;;
50309;SDS011;36207;51.850;21.698;2023-11-22T12:53:26;12.10;;;6.40;;
50309;SDS011;36207;51.850;21.698;2023-11-22T12:55:54;9.90;;;6.00;;
50309;SDS011;36207;51.850;21.698;2023-11-22T12:58:24;10.20;;;6.60;;
50309;SDS011;36207;51.850;21.698;2023-11-22T13:00:52;10.80;;;6.20;;
50309;SDS011;36207;51.850;21.698;2023-11-22T13:03:23;9.40;;;5.90;;
50309;SDS011;36207;51.850;21.698;2023-11-22T13:05:51;10.90;;;6.50;;
50309;SDS011;36207;51.850;21.698;2023-11-22T13:08:17;10.90;;;6.40;;
50309;SDS011;36207;51.850;21.698;2023-11-22T13:10:44;10.40;;;6.70;;
50309;SDS011;36207;51.850;21.698;2023-11-22T13:13:12;10.10;;;5.70;;
50309;SDS011;36207;51.850;21.698;2023-11-22T13:15:39;9.90;;;5.90;;
50309;SDS011;36207;51.850;21.698;2023-11-22T13:18:06;10.80;;;5.90;;
50309;SDS011;36207;51.850;21.698;2023-11-22T13:20:34;8.90;;;5.40;;
50309;SDS011;36207;51.850;21.698;2023-11-22T13:23:00;9.00;;;5.30;;
50309;SDS011;36207;51.850;21.698;2023-11-22T13:25:28;8.50;;;5.40;;
50309;SDS011;36207;51.850;21.698;2023-11-22T13:27:54;10.00;;;5.40;;
50309;SDS011;36207;51.850;21.698;2023-11-22T13:30:22;8.50;;;5.30;;
50309;SDS011;36207;51.850;21.698;2023-11-22T13:32:49;7.80;;;5.00;;
50309;SDS011;36207;51.850;21.698;2023-11-22T13:35:15;8.60;;;5.00;;
50309;SDS011;36207;51.850;21.698;2023-11-22T13:37:46;8.30;;;5.30;;
50309;SDS011;36207;51.850;21.698;2023-11-22T13:40:14;9.00;;;5.40;;
50309;SDS011;36207;51.850;21.698;2023-11-22T13:42:45;7.90;;;5.30;;
50309;SDS011;36207;51.850;21.698;2023-11-22T13:45:12;9.50;;;5.70;;
50309;SDS011;36207;51.850;21.698;2023-11-22T13:47:41;9.60;;;5.50;;
50309;SDS011;36207;51.850;21.698;2023-11-22T13:50:16;10.00;;;5.70;;
50309;SDS011;36207;51.850;21.698;2023-11-22T13:52:53;8.90;;;5.20;;
50309;SDS011;36207;51.850;21.698;2023-11-22T13:55:20;9.90;;;5.70;;
50309;SDS011;36207;51.850;21.698;2023-11-22T14:00:17;11.00;;;5.70;;
50309;SDS011;36207;51.850;21.698;2023-11-22T14:02:45;11.70;;;6.10;;
50309;SDS011;36207;51.850;21.698;2023-11-22T14:05:12;10.80;;;6.10;;
50309;SDS011;36207;51.850;21.698;2023-11-22T14:07:39;11.00;;;6.20;;
50309;SDS011;36207;51.850;21.698;2023-11-22T14:10:05;14.90;;;9.30;;
50309;SDS011;36207;51.850;21.698;2023-11-22T14:12:32;13.40;;;7.50;;
50309;SDS011;36207;51.850;21.698;2023-11-22T14:14:58;14.10;;;7.80;;
50309;SDS011;36207;51.850;21.698;2023-11-22T14:17:25;14.70;;;8.20;;
50309;SDS011;36207;51.850;21.698;2023-11-22T14:19:52;14.50;;;8.40;;
50309;SDS011;36207;51.850;21.698;2023-11-22T14:22:20;15.20;;;8.10;;
50309;SDS011;36207;51.850;21.698;2023-11-22T14:24:48;15.10;;;8.90;;
50309;SDS011;36207;51.850;21.698;2023-11-22T14:27:17;13.80;;;8.30;;
50309;SDS011;36207;51.850;21.698;2023-11-22T14:29:45;15.70;;;8.60;;
50309;SDS011;36207;51.850;21.698;2023-11-22T14:32:14;16.00;;;8.70;;
50309;SDS011;36207;51.850;21.698;2023-11-22T14:34:41;14.50;;;8.10;;
50309;SDS011;36207;51.850;21.698;2023-11-22T14:37:11;15.10;;;8.90;;
50309;SDS011;36207;51.850;21.698;2023-11-22T14:39:38;14.60;;;8.40;;